Time;durP1;ratioP1;P1;durP2;ratioP2;P2;SDS_P1;SDS_P2;PMS_P1;PMS_P2;Temp;Humidity;BMP_temperature;BMP_pressure;BME280_temperature;BME280_humidity;BME280_pressure;Samples;Min_cycle;Max_cycle;Signal;HPM_P1;HPM_P2
2021/09/04 00:01:06;;;;;;;11.87;8.30;;;16.80;99.90;;;;;;10525131;28;20243;-84
2021/09/04 00:06:08;;;;;;;9.57;8.67;;;16.80;99.90;;;;;;10516470;28;20199;-85
2021/09/04 00:11:12;;;;;;;9.97;8.67;;;16.70;99.90;;;;;;10526170;22;20248;-81
2021/09/04 00:16:15;;;;;;;9.27;8.47;;;16.70;99.90;;;;;;10541594;28;20231;-81
2021/09/04 00:21:17;;;;;;;9.63;8.83;;;16.70;99.90;;;;;;10523935;28;20302;-83
2021/09/04 00:26:22;;;;;;;9.30;8.40;;;16.60;99.90;;;;;;10536265;28;20214;-83
2021/09/04 00:31:24;;;;;;;10.03;8.50;;;16.60;99.90;;;;;;10540040;28;20208;-81
2021/09/04 00:36:27;;;;;;;9.07;8.27;;;16.60;99.90;;;;;;10539367;28;20298;-81
2021/09/04 00:41:34;;;;;;;8.90;8.20;;;16.60;99.90;;;;;;10538149;28;20218;-80
2021/09/04 00:46:36;;;;;;;10.57;8.37;;;16.50;99.90;;;;;;10517845;28;20576;-81
2021/09/04 00:51:38;;;;;;;9.70;8.90;;;16.50;99.90;;;;;;10539235;28;20276;-81
2021/09/04 00:56:42;;;;;;;8.80;8.00;;;16.50;99.90;;;;;;10500277;28;20226;-81
2021/09/04 01:01:47;;;;;;;8.43;7.73;;;16.40;99.90;;;;;;10494134;28;20228;-81
2021/09/04 01:06:50;;;;;;;9.47;8.63;;;16.40;99.90;;;;;;10485035;28;20195;-82
2021/09/04 01:11:55;;;;;;;9.47;8.57;;;16.40;99.90;;;;;;10486887;28;20623;-81
2021/09/04 01:16:59;;;;;;;8.83;8.13;;;16.30;99.90;;;;;;10485666;28;20228;-81
2021/09/04 01:22:01;;;;;;;8.83;8.13;;;16.30;99.90;;;;;;10486966;28;20212;-81
2021/09/04 01:27:05;;;;;;;10.03;9.03;;;16.30;99.90;;;;;;10511462;28;20295;-81
2021/09/04 01:32:08;;;;;;;10.23;9.33;;;16.30;99.90;;;;;;10546539;28;20215;-81
2021/09/04 01:37:10;;;;;;;8.97;8.17;;;16.30;99.90;;;;;;10529637;28;20222;-82
2021/09/04 01:42:14;;;;;;;9.63;8.67;;;16.20;99.90;;;;;;10527890;28;20299;-82
2021/09/04 01:47:16;;;;;;;10.03;8.90;;;16.20;99.90;;;;;;10513233;28;20204;-81
2021/09/04 01:52:18;;;;;;;9.10;8.40;;;16.20;99.90;;;;;;10556995;28;20277;-81
2021/09/04 01:57:21;;;;;;;9.20;8.50;;;16.20;99.90;;;;;;10522747;28;20207;-81
2021/09/04 02:02:25;;;;;;;10.83;9.03;;;16.10;99.90;;;;;;10523586;28;20239;-81
2021/09/04 02:07:27;;;;;;;9.83;9.00;;;16.10;99.90;;;;;;10529324;28;20270;-81
2021/09/04 02:12:31;;;;;;;8.97;8.07;;;16.10;99.90;;;;;;10533736;28;20238;-81
2021/09/04 02:17:33;;;;;;;9.07;8.37;;;16.10;99.90;;;;;;10517518;28;20216;-80
2021/09/04 02:22:36;;;;;;;9.67;8.83;;;16.00;99.90;;;;;;10527359;28;20216;-81
2021/09/04 02:27:39;;;;;;;9.20;8.50;;;16.00;99.90;;;;;;10492373;28;20236;-81
2021/09/04 02:32:42;;;;;;;8.57;7.90;;;15.90;99.90;;;;;;10492985;28;20212;-83
2021/09/04 02:37:44;;;;;;;10.07;9.27;;;15.90;99.90;;;;;;10509445;28;20687;-84
2021/09/04 02:42:48;;;;;;;9.83;9.03;;;15.90;99.90;;;;;;10512450;28;20212;-84
2021/09/04 02:47:50;;;;;;;10.27;9.37;;;15.90;99.90;;;;;;10490623;28;20197;-83
2021/09/04 02:52:53;;;;;;;10.50;9.67;;;15.80;99.90;;;;;;10481969;28;20220;-83
2021/09/04 02:57:57;;;;;;;9.77;8.97;;;15.80;99.90;;;;;;10492809;28;20223;-83
2021/09/04 03:03:00;;;;;;;10.00;9.00;;;15.80;99.90;;;;;;10510431;28;20239;-84
2021/09/04 03:08:03;;;;;;;10.40;9.40;;;15.80;99.90;;;;;;10474262;28;20197;-83
2021/09/04 03:13:06;;;;;;;9.20;8.40;;;15.70;99.90;;;;;;10507886;28;20224;-83
2021/09/04 03:18:09;;;;;;;9.47;8.67;;;15.70;99.90;;;;;;10487492;28;20212;-84
2021/09/04 03:23:11;;;;;;;9.47;8.60;;;15.70;99.90;;;;;;10483382;28;20311;-84
2021/09/04 03:28:14;;;;;;;9.53;8.73;;;15.60;99.90;;;;;;10466643;28;20292;-83
2021/09/04 03:33:17;;;;;;;9.97;9.17;;;15.60;99.90;;;;;;10503724;28;20635;-84
2021/09/04 03:38:19;;;;;;;9.93;9.13;;;15.60;99.90;;;;;;10467880;28;20227;-83
2021/09/04 03:43:23;;;;;;;10.20;9.20;;;15.60;99.90;;;;;;10467951;28;20692;-84
2021/09/04 03:48:25;;;;;;;9.67;8.90;;;15.60;99.90;;;;;;10485192;28;20196;-83
2021/09/04 03:53:28;;;;;;;10.10;9.20;;;15.60;99.90;;;;;;10501760;28;20696;-84
2021/09/04 03:58:32;;;;;;;9.70;9.00;;;15.60;99.90;;;;;;10485171;28;20227;-84
2021/09/04 04:03:35;;;;;;;10.80;9.90;;;15.60;99.90;;;;;;10467937;28;20216;-83
2021/09/04 04:08:37;;;;;;;10.30;9.30;;;15.50;99.90;;;;;;10503156;28;20219;-84
2021/09/04 04:13:41;;;;;;;9.90;8.90;;;15.50;99.90;;;;;;10485167;28;20798;-83
2021/09/04 04:18:43;;;;;;;9.73;8.83;;;15.50;99.90;;;;;;10492835;28;20227;-83
2021/09/04 04:23:47;;;;;;;10.13;9.23;;;15.50;99.90;;;;;;10518730;28;20210;-83
2021/09/04 04:28:50;;;;;;;11.07;9.97;;;15.50;99.90;;;;;;10555136;28;20272;-84
2021/09/04 04:33:53;;;;;;;9.93;9.13;;;15.50;99.90;;;;;;10551659;28;20211;-83
2021/09/04 04:38:55;;;;;;;10.00;9.17;;;15.50;99.90;;;;;;10532905;28;20908;-83
2021/09/04 04:43:59;;;;;;;9.93;9.03;;;15.40;99.90;;;;;;10536269;28;20219;-83
2021/09/04 04:49:02;;;;;;;10.20;9.27;;;15.40;99.90;;;;;;10569261;28;20681;-83
2021/09/04 04:54:05;;;;;;;9.77;8.87;;;15.40;99.90;;;;;;10545590;28;20710;-83
2021/09/04 04:59:08;;;;;;;8.97;8.10;;;15.40;99.90;;;;;;10507792;28;20283;-83
2021/09/04 05:04:11;;;;;;;9.90;9.10;;;15.40;99.90;;;;;;10528265;28;20219;-83
2021/09/04 05:09:13;;;;;;;9.90;9.00;;;15.40;99.90;;;;;;10543705;28;20177;-83
2021/09/04 05:14:17;;;;;;;8.83;8.13;;;15.40;99.90;;;;;;10523923;28;20612;-83
2021/09/04 05:19:20;;;;;;;10.33;8.63;;;15.40;99.90;;;;;;10532579;28;20357;-83
2021/09/04 05:24:24;;;;;;;10.07;9.17;;;15.40;99.90;;;;;;10529973;28;20215;-83
2021/09/04 05:29:30;;;;;;;10.80;9.63;;;15.40;99.90;;;;;;10529774;28;20724;-84
2021/09/04 05:34:32;;;;;;;10.00;9.20;;;15.40;99.90;;;;;;10531740;28;20274;-84
2021/09/04 05:39:34;;;;;;;10.23;9.37;;;15.40;99.90;;;;;;10527223;28;20306;-84
2021/09/04 05:44:38;;;;;;;10.50;9.40;;;15.50;99.90;;;;;;10526510;28;20589;-83
2021/09/04 05:49:40;;;;;;;11.50;10.40;;;15.50;99.90;;;;;;10544813;28;20203;-84
2021/09/04 05:54:42;;;;;;;11.33;10.27;;;15.50;99.90;;;;;;10527146;28;20738;-84
2021/09/04 05:59:45;;;;;;;11.10;10.03;;;15.50;99.90;;;;;;10530305;28;20223;-84
2021/09/04 06:04:47;;;;;;;12.27;11.10;;;15.60;99.90;;;;;;10531831;28;20624;-83
2021/09/04 06:09:49;;;;;;;12.10;11.00;;;15.60;99.90;;;;;;10503298;28;20221;-83
2021/09/04 06:14:53;;;;;;;11.37;10.37;;;15.60;99.90;;;;;;10554746;23;20238;-87
2021/09/04 06:19:55;;;;;;;13.30;12.20;;;15.70;99.90;;;;;;10523195;28;20235;-86
2021/09/04 06:25:00;;;;;;;13.67;12.43;;;15.70;99.90;;;;;;10524011;28;20226;-86
2021/09/04 06:30:04;;;;;;;12.07;11.07;;;15.80;99.90;;;;;;10503036;28;20220;-86
2021/09/04 06:35:07;;;;;;;13.50;12.23;;;15.80;99.90;;;;;;10502479;28;20220;-86
2021/09/04 06:40:10;;;;;;;13.57;12.17;;;15.90;99.90;;;;;;10504165;28;20227;-86
2021/09/04 06:45:14;;;;;;;13.80;12.60;;;16.00;99.90;;;;;;10524037;28;20212;-85
2021/09/04 06:50:18;;;;;;;14.83;13.43;;;16.00;99.90;;;;;;10540148;28;20664;-86
2021/09/04 06:55:21;;;;;;;13.40;12.20;;;16.10;99.90;;;;;;10518939;28;20728;-87
2021/09/04 07:01:00;;;;;;;13.90;12.60;;;16.10;99.90;;;;;;10532814;28;20277;-88
2021/09/04 07:06:08;;;;;;;15.50;14.10;;;16.20;99.90;;;;;;10515877;28;20562;-86
2021/09/04 07:11:10;;;;;;;15.33;14.00;;;16.30;99.90;;;;;;10511374;28;20196;-86
2021/09/04 07:16:15;;;;;;;15.07;13.67;;;16.40;99.90;;;;;;10513264;28;20196;-86
2021/09/04 07:21:19;;;;;;;14.90;12.67;;;16.50;99.90;;;;;;10508467;28;20315;-86
2021/09/04 07:26:22;;;;;;;14.10;12.90;;;16.60;99.90;;;;;;10507809;28;20249;-86
2021/09/04 07:31:24;;;;;;;13.80;12.40;;;16.70;99.90;;;;;;10525625;28;20192;-86
2021/09/04 07:42:27;;;;;;;13.47;12.17;;;16.90;99.90;;;;;;10503721;28;20227;-86
2021/09/04 07:48:17;;;;;;;14.03;12.50;;;17.00;99.90;;;;;;10509207;28;20226;-86
2021/09/04 08:00:40;;;;;;;13.50;12.20;;;17.30;99.90;;;;;;10519733;28;20219;-86
2021/09/04 08:05:47;;;;;;;13.17;12.07;;;17.60;99.90;;;;;;10496280;28;20269;-87
2021/09/04 08:10:51;;;;;;;12.43;11.33;;;17.80;99.90;;;;;;10433941;28;20196;-83
2021/09/04 08:15:55;;;;;;;10.90;10.00;;;17.90;99.90;;;;;;10531915;28;20227;-83
2021/09/04 08:20:57;;;;;;;11.20;10.30;;;18.10;99.90;;;;;;10539199;28;20223;-84
2021/09/04 08:25:59;;;;;;;11.57;10.53;;;18.20;99.90;;;;;;10523921;28;20734;-84
2021/09/04 08:31:03;;;;;;;10.83;9.83;;;18.30;99.90;;;;;;10543539;28;20192;-84
2021/09/04 08:36:05;;;;;;;10.97;9.87;;;18.40;99.90;;;;;;10544162;28;20216;-84
2021/09/04 08:41:11;;;;;;;9.93;9.13;;;18.50;99.90;;;;;;10523642;28;20628;-84
2021/09/04 08:46:15;;;;;;;10.80;9.80;;;18.50;99.90;;;;;;10522801;28;20237;-84
2021/09/04 08:51:17;;;;;;;11.10;9.90;;;18.60;99.90;;;;;;10523292;28;20192;-84
2021/09/04 08:56:20;;;;;;;9.73;8.93;;;18.70;99.90;;;;;;10523867;28;20199;-84
2021/09/04 09:01:25;;;;;;;10.33;9.33;;;18.70;99.90;;;;;;10523799;28;20256;-85
2021/09/04 09:06:29;;;;;;;9.97;9.07;;;18.80;99.90;;;;;;10507222;28;20196;-84
2021/09/04 09:11:38;;;;;;;9.57;8.83;;;18.90;99.90;;;;;;10522962;28;20671;-84
2021/09/04 09:16:51;;;;;;;10.30;9.37;;;18.90;99.90;;;;;;10503536;28;20253;-84
2021/09/04 09:21:56;;;;;;;10.07;9.10;;;19.00;99.90;;;;;;10506018;28;20227;-85
2021/09/04 09:27:01;;;;;;;9.77;8.97;;;19.10;99.90;;;;;;10523323;28;20193;-85
2021/09/04 09:32:07;;;;;;;12.63;9.03;;;19.20;99.90;;;;;;10520588;28;20212;-85
2021/09/04 09:37:10;;;;;;;8.80;8.00;;;19.40;99.90;;;;;;10524252;28;20314;-85
2021/09/04 09:42:14;;;;;;;8.90;8.00;;;19.60;99.90;;;;;;10523290;28;20227;-84
2021/09/04 09:47:17;;;;;;;9.10;8.30;;;19.90;99.90;;;;;;10503748;28;20196;-85
2021/09/04 09:52:20;;;;;;;7.50;6.90;;;20.20;99.90;;;;;;10508853;28;20218;-85
2021/09/04 09:57:22;;;;;;;7.33;6.73;;;20.70;99.90;;;;;;10507361;28;20207;-83
2021/09/04 10:02:25;;;;;;;6.80;6.30;;;21.20;99.90;;;;;;10520682;28;20220;-84
2021/09/04 10:07:30;;;;;;;8.80;6.13;;;21.60;99.90;;;;;;10518687;28;20386;-85
2021/09/04 10:12:33;;;;;;;7.20;6.50;;;21.80;99.90;;;;;;10500473;28;20266;-84
2021/09/04 10:17:37;;;;;;;8.00;5.90;;;21.80;99.90;;;;;;10501970;28;20223;-85
2021/09/04 10:22:41;;;;;;;6.10;5.60;;;21.70;99.90;;;;;;10502279;28;20255;-84
2021/09/04 10:27:45;;;;;;;6.03;5.53;;;21.60;99.90;;;;;;10504325;28;20200;-84
2021/09/04 10:33:02;;;;;;;6.03;5.53;;;21.40;99.90;;;;;;10506326;28;20215;-83
2021/09/04 10:38:10;;;;;;;5.90;5.30;;;21.30;99.90;;;;;;10510221;28;20203;-83
2021/09/04 10:43:13;;;;;;;5.77;5.27;;;21.20;99.90;;;;;;10509674;28;20212;-83
2021/09/04 10:48:19;;;;;;;6.40;5.03;;;21.20;99.90;;;;;;10525606;28;20663;-84
2021/09/04 10:53:41;;;;;;;5.93;5.53;;;21.10;99.90;;;;;;10518713;28;20243;-83
2021/09/04 10:58:43;;;;;;;6.20;5.27;;;21.00;99.90;;;;;;10508477;28;20218;-83
2021/09/04 11:03:54;;;;;;;7.50;6.90;;;20.90;99.90;;;;;;10508330;28;20265;-82
2021/09/04 11:08:56;;;;;;;7.10;6.50;;;20.90;99.90;;;;;;10529799;28;20184;-84
2021/09/04 11:14:00;;;;;;;7.47;6.87;;;20.90;99.90;;;;;;10530235;28;20220;-84
2021/09/04 11:19:10;;;;;;;8.80;6.10;;;20.90;99.90;;;;;;10512693;28;20227;-84
2021/09/04 11:24:13;;;;;;;7.70;6.90;;;20.80;99.90;;;;;;10544658;28;20280;-84
2021/09/04 11:29:15;;;;;;;7.33;6.73;;;20.80;99.90;;;;;;10508330;28;20291;-84
2021/09/04 11:34:18;;;;;;;7.80;7.07;;;20.70;99.90;;;;;;10523158;28;20215;-83
2021/09/04 11:39:20;;;;;;;7.13;6.60;;;20.80;99.90;;;;;;10506637;28;20223;-84
2021/09/04 11:44:23;;;;;;;6.40;5.90;;;20.90;99.90;;;;;;10507757;28;20281;-84
2021/09/04 11:49:43;;;;;;;7.90;7.07;;;20.90;99.90;;;;;;10509693;28;20200;-84
2021/09/04 11:54:46;;;;;;;6.57;6.07;;;21.00;99.90;;;;;;10526711;28;20211;-85
2021/09/04 12:00:05;;;;;;;9.23;7.80;;;21.00;99.90;;;;;;10525114;28;20228;-84
2021/09/04 12:05:16;;;;;;;7.43;6.67;;;21.10;99.90;;;;;;10525554;28;20651;-84
2021/09/04 12:10:23;;;;;;;7.20;6.60;;;21.20;99.90;;;;;;10510076;28;20196;-83
2021/09/04 12:15:26;;;;;;;6.70;6.10;;;21.20;99.90;;;;;;10514541;23;20244;-83
2021/09/04 12:20:33;;;;;;;5.50;5.10;;;21.20;99.90;;;;;;10486197;28;20220;-83
2021/09/04 12:25:35;;;;;;;5.37;4.90;;;21.10;99.90;;;;;;10483271;28;20226;-84
2021/09/04 12:30:57;;;;;;;5.50;5.07;;;21.10;99.90;;;;;;10512268;28;20232;-83
2021/09/04 12:36:02;;;;;;;5.67;5.27;;;21.10;99.90;;;;;;10479899;28;20224;-83
2021/09/04 12:41:14;;;;;;;5.90;5.50;;;21.10;99.90;;;;;;10466450;28;20220;-83
2021/09/04 12:46:30;;;;;;;5.40;5.00;;;21.10;99.90;;;;;;10494048;28;20722;-83
2021/09/04 12:51:35;;;;;;;5.70;5.30;;;21.20;99.90;;;;;;10476014;28;20561;-83
2021/09/04 12:56:39;;;;;;;4.90;4.60;;;21.20;99.90;;;;;;10358406;28;20267;-84
2021/09/04 13:01:41;;;;;;;5.30;4.90;;;21.20;99.90;;;;;;10341017;28;20730;-84
2021/09/04 13:06:45;;;;;;;5.20;4.80;;;21.10;99.90;;;;;;10353288;28;20635;-84
2021/09/04 13:11:47;;;;;;;5.30;4.90;;;21.00;99.90;;;;;;10390427;28;20210;-83
2021/09/04 13:16:49;;;;;;;6.27;5.70;;;21.00;99.90;;;;;;10378599;28;20290;-83
2021/09/04 13:21:53;;;;;;;7.17;6.47;;;20.90;99.90;;;;;;10398324;28;20767;-82
2021/09/04 13:26:55;;;;;;;5.30;4.80;;;20.90;99.90;;;;;;10395824;28;20386;-83
2021/09/04 13:31:57;;;;;;;11.77;8.67;;;21.00;99.90;;;;;;10395020;28;20634;-83
2021/09/04 13:37:01;;;;;;;6.73;6.03;;;21.20;99.90;;;;;;10370327;28;20208;-83
2021/09/04 13:42:03;;;;;;;8.20;6.50;;;21.30;99.90;;;;;;10356968;28;20250;-83
2021/09/04 13:47:05;;;;;;;6.47;5.80;;;21.30;99.90;;;;;;10391433;28;20703;-83
2021/09/04 13:52:09;;;;;;;6.90;6.30;;;21.20;99.90;;;;;;10375504;28;20212;-83
2021/09/04 13:57:11;;;;;;;7.27;6.57;;;21.20;99.90;;;;;;10389176;28;20199;-83
2021/09/04 14:02:15;;;;;;;5.80;5.40;;;21.00;99.90;;;;;;10395484;28;20231;-83
2021/09/04 14:07:19;;;;;;;6.03;5.43;;;21.10;99.90;;;;;;10328616;28;20206;-84
2021/09/04 14:12:21;;;;;;;7.43;6.73;;;21.20;99.90;;;;;;10379502;28;20251;-83
2021/09/04 14:17:26;;;;;;;7.63;6.77;;;21.30;99.90;;;;;;10394619;28;20207;-83
2021/09/04 14:22:30;;;;;;;5.43;5.00;;;21.30;99.90;;;;;;10323106;28;20244;-83
2021/09/04 14:27:32;;;;;;;5.40;5.00;;;21.50;99.40;;;;;;10368310;28;20718;-83
2021/09/04 14:32:35;;;;;;;5.90;5.40;;;21.70;99.90;;;;;;10393142;28;20230;-83
2021/09/04 14:37:38;;;;;;;6.00;5.43;;;21.80;99.90;;;;;;10378273;28;20208;-82
2021/09/04 14:42:45;;;;;;;6.23;5.77;;;21.70;99.90;;;;;;10393989;28;20662;-82
2021/09/04 14:47:47;;;;;;;5.60;5.10;;;21.70;99.90;;;;;;10327144;28;20570;-83
2021/09/04 14:52:51;;;;;;;7.33;6.17;;;21.70;99.90;;;;;;10377712;28;20228;-83
2021/09/04 14:57:53;;;;;;;5.37;4.97;;;21.80;99.90;;;;;;10377894;28;20215;-83
2021/09/04 15:02:55;;;;;;;6.40;5.80;;;21.80;99.90;;;;;;10375954;28;20223;-83
2021/09/04 15:07:59;;;;;;;6.57;5.97;;;21.80;99.90;;;;;;10370885;28;20215;-83
2021/09/04 15:13:01;;;;;;;6.47;5.97;;;21.70;99.90;;;;;;10390708;28;20219;-84
2021/09/04 15:18:03;;;;;;;5.50;5.00;;;21.60;99.90;;;;;;10329638;28;20234;-83
2021/09/04 15:23:07;;;;;;;6.83;6.23;;;21.50;99.90;;;;;;10399090;28;20652;-82
2021/09/04 15:28:09;;;;;;;5.27;4.87;;;21.40;99.90;;;;;;10398939;28;20219;-82
2021/09/04 15:33:11;;;;;;;5.80;5.30;;;21.40;99.90;;;;;;10409336;28;20225;-83
2021/09/04 15:38:14;;;;;;;8.50;7.80;;;21.40;99.90;;;;;;10328499;28;20619;-83
2021/09/04 15:43:16;;;;;;;7.43;6.83;;;21.50;99.90;;;;;;10397235;28;20219;-84
2021/09/04 15:48:19;;;;;;;5.43;4.97;;;21.60;99.90;;;;;;10330950;28;20541;-83
2021/09/04 15:53:22;;;;;;;5.20;4.77;;;21.50;99.90;;;;;;10381283;28;20239;-83
2021/09/04 15:58:26;;;;;;;5.73;5.13;;;21.60;99.90;;;;;;10380924;28;20379;-83
2021/09/04 16:03:29;;;;;;;5.50;5.10;;;21.70;99.90;;;;;;10380031;28;20231;-83
2021/09/04 16:08:32;;;;;;;5.70;5.20;;;21.70;99.90;;;;;;10414646;28;20210;-83
2021/09/04 16:13:35;;;;;;;7.97;5.03;;;21.60;99.90;;;;;;10397058;28;20242;-83
2021/09/04 16:18:38;;;;;;;5.53;5.13;;;21.50;99.90;;;;;;10398485;28;20249;-83
2021/09/04 16:23:41;;;;;;;5.73;5.23;;;21.40;99.90;;;;;;10382483;28;20223;-83
2021/09/04 16:28:43;;;;;;;5.00;4.60;;;21.50;99.90;;;;;;10397121;28;20203;-83
2021/09/04 16:33:46;;;;;;;8.00;7.30;;;21.50;99.90;;;;;;10380595;28;20218;-83
2021/09/04 16:38:50;;;;;;;5.27;4.83;;;21.60;99.90;;;;;;10379639;28;20207;-83
2021/09/04 16:43:52;;;;;;;4.70;4.30;;;21.70;99.90;;;;;;10398053;28;20715;-83
2021/09/04 16:48:54;;;;;;;5.30;4.90;;;21.70;99.90;;;;;;10399312;28;20202;-84
2021/09/04 16:53:58;;;;;;;5.17;4.77;;;21.70;99.90;;;;;;10379994;28;20230;-83
2021/09/04 16:59:00;;;;;;;6.97;4.80;;;21.70;99.90;;;;;;10395146;28;20224;-83
2021/09/04 17:04:02;;;;;;;5.20;4.80;;;21.70;99.90;;;;;;10376987;28;20587;-83
2021/09/04 17:09:05;;;;;;;5.37;4.53;;;21.60;99.90;;;;;;10395022;28;20269;-83
2021/09/04 17:14:08;;;;;;;5.60;5.20;;;21.60;99.90;;;;;;10396912;28;20263;-83
2021/09/04 17:19:10;;;;;;;5.83;5.33;;;21.50;99.90;;;;;;10389517;28;20207;-83
2021/09/04 17:24:14;;;;;;;5.57;5.07;;;21.40;99.90;;;;;;10329276;28;20242;-83
2021/09/04 17:29:16;;;;;;;6.27;5.73;;;21.40;99.90;;;;;;10396491;28;20621;-83
2021/09/04 17:34:18;;;;;;;6.30;5.57;;;21.20;99.90;;;;;;10394939;28;20207;-83
2021/09/04 17:39:22;;;;;;;9.83;8.60;;;21.10;99.90;;;;;;10396822;28;20649;-83
2021/09/04 17:44:24;;;;;;;10.23;9.33;;;21.00;99.90;;;;;;10397292;28;20227;-83
2021/09/04 17:49:26;;;;;;;6.40;5.77;;;20.90;99.90;;;;;;10379610;28;20564;-84
2021/09/04 17:54:30;;;;;;;5.60;5.10;;;20.70;99.90;;;;;;10381665;28;20219;-83
2021/09/04 17:59:32;;;;;;;5.90;5.40;;;20.60;99.90;;;;;;10381942;28;20323;-84
2021/09/04 18:04:34;;;;;;;5.40;4.80;;;20.50;99.90;;;;;;10415565;28;20594;-84
2021/09/04 18:09:38;;;;;;;5.80;5.27;;;20.30;99.90;;;;;;10400365;28;20655;-84
2021/09/04 18:14:43;;;;;;;6.23;5.73;;;20.20;99.90;;;;;;10544885;22;20231;-83
2021/09/04 18:19:45;;;;;;;6.30;5.70;;;20.10;99.90;;;;;;10520998;28;20303;-82
2021/09/04 18:24:50;;;;;;;6.03;5.53;;;20.00;99.90;;;;;;10521292;28;20223;-82
2021/09/04 18:29:52;;;;;;;9.00;8.20;;;20.00;99.90;;;;;;10521624;28;20579;-83
2021/09/04 18:34:55;;;;;;;8.60;7.80;;;19.90;99.90;;;;;;10503214;28;20223;-82
2021/09/04 18:39:58;;;;;;;8.23;7.50;;;19.90;99.90;;;;;;10519898;28;20535;-82
2021/09/04 18:45:01;;;;;;;11.13;10.13;;;19.80;99.90;;;;;;10539336;28;20212;-82
2021/09/04 18:50:03;;;;;;;11.37;10.40;;;19.80;99.90;;;;;;10548685;28;20721;-82
2021/09/04 18:55:07;;;;;;;9.23;8.43;;;19.70;99.90;;;;;;10551910;28;20291;-82
2021/09/04 19:00:11;;;;;;;8.67;7.87;;;19.70;99.90;;;;;;10552157;28;20256;-82
2021/09/04 19:05:17;;;;;;;8.43;7.73;;;19.60;99.90;;;;;;10535093;28;20219;-82
2021/09/04 19:10:21;;;;;;;8.53;7.87;;;19.60;99.90;;;;;;10535497;28;20273;-82
2021/09/04 19:15:23;;;;;;;8.23;7.60;;;19.40;99.90;;;;;;10527102;28;20219;-82
2021/09/04 19:20:25;;;;;;;8.80;8.10;;;19.40;99.90;;;;;;10528053;28;20255;-81
2021/09/04 19:25:29;;;;;;;9.73;7.23;;;19.40;99.90;;;;;;10530221;28;20227;-82
2021/09/04 19:30:31;;;;;;;7.03;6.33;;;19.30;99.90;;;;;;10530190;28;20192;-82
2021/09/04 19:35:33;;;;;;;9.57;8.77;;;19.20;99.90;;;;;;10550072;28;20216;-82
2021/09/04 19:40:38;;;;;;;6.07;5.57;;;19.20;99.90;;;;;;10554098;28;20216;-82
2021/09/04 19:45:40;;;;;;;7.50;5.97;;;19.10;99.90;;;;;;10557447;28;20204;-82
2021/09/04 19:50:42;;;;;;;7.50;6.80;;;19.10;99.90;;;;;;10541261;28;20200;-82
2021/09/04 19:55:46;;;;;;;7.67;6.87;;;19.10;99.90;;;;;;10535246;28;20602;-82
2021/09/04 20:00:48;;;;;;;14.27;11.17;;;19.10;99.90;;;;;;10509996;28;20311;-82
2021/09/04 20:05:51;;;;;;;8.80;7.90;;;19.00;99.90;;;;;;10550575;28;20212;-82
2021/09/04 20:10:54;;;;;;;5.07;4.77;;;19.00;99.90;;;;;;10524068;28;20655;-82
2021/09/04 20:15:56;;;;;;;6.10;5.60;;;18.90;99.90;;;;;;10510471;28;20238;-81
2021/09/04 20:21:03;;;;;;;6.20;5.70;;;18.90;99.90;;;;;;10536209;28;20243;-81
2021/09/04 20:26:27;;;;;;;6.27;5.77;;;18.90;99.90;;;;;;10510259;28;20216;-82
2021/09/04 20:31:29;;;;;;;6.70;6.20;;;18.80;99.90;;;;;;10524612;28;20180;-82
2021/09/04 20:36:34;;;;;;;6.33;5.83;;;18.80;99.90;;;;;;10526135;28;20220;-82
2021/09/04 20:41:47;;;;;;;6.50;6.00;;;18.70;99.90;;;;;;10520587;28;20252;-82
2021/09/04 20:46:55;;;;;;;7.40;6.80;;;18.70;99.90;;;;;;10484804;28;20225;-82
2021/09/04 20:51:58;;;;;;;6.50;6.00;;;18.70;99.90;;;;;;10472934;28;20200;-82
2021/09/04 20:57:01;;;;;;;6.50;6.00;;;18.70;99.90;;;;;;10523549;28;20200;-82
2021/09/04 21:02:04;;;;;;;7.00;6.40;;;18.60;99.90;;;;;;10525772;28;20592;-82
2021/09/04 21:07:06;;;;;;;7.27;6.57;;;18.60;99.90;;;;;;10528007;28;20210;-82
2021/09/04 21:12:10;;;;;;;6.83;6.30;;;18.60;99.90;;;;;;10510071;28;20239;-82
2021/09/04 21:17:12;;;;;;;7.83;7.13;;;18.60;99.90;;;;;;10528344;28;20199;-82
2021/09/04 21:22:14;;;;;;;9.53;7.10;;;18.60;99.90;;;;;;10530259;28;20212;-82
2021/09/04 21:27:21;;;;;;;7.17;6.47;;;18.60;99.90;;;;;;10525155;28;20199;-81
2021/09/04 21:32:23;;;;;;;10.40;9.50;;;18.50;99.90;;;;;;10524980;28;20216;-82
2021/09/04 21:37:27;;;;;;;9.43;8.47;;;18.50;99.90;;;;;;10543421;28;20188;-81
2021/09/04 21:42:33;;;;;;;9.40;8.10;;;18.50;99.90;;;;;;10535983;28;20253;-82
2021/09/04 21:47:36;;;;;;;8.20;7.40;;;18.40;99.90;;;;;;10585534;28;20195;-81
2021/09/04 21:52:38;;;;;;;8.23;6.97;;;18.40;99.90;;;;;;10525714;28;20226;-82
2021/09/04 21:57:41;;;;;;;9.77;7.17;;;18.40;99.90;;;;;;10525440;28;20196;-82
2021/09/04 22:02:44;;;;;;;7.67;6.97;;;18.30;99.90;;;;;;10542140;28;20574;-82
2021/09/04 22:07:46;;;;;;;7.30;6.70;;;18.30;99.90;;;;;;10523637;28;20227;-82
2021/09/04 22:12:49;;;;;;;7.90;7.23;;;18.20;99.90;;;;;;10507339;28;20242;-82
2021/09/04 22:17:51;;;;;;;7.67;6.97;;;18.20;99.90;;;;;;10542859;28;20227;-82
2021/09/04 22:22:54;;;;;;;7.00;6.40;;;18.10;99.90;;;;;;10525318;28;20231;-81
2021/09/04 22:27:57;;;;;;;7.47;6.87;;;18.10;99.90;;;;;;10532789;28;20199;-82
2021/09/04 22:33:03;;;;;;;8.33;7.57;;;18.00;99.90;;;;;;10531846;28;20691;-82
2021/09/04 22:38:12;;;;;;;8.00;7.30;;;18.00;99.90;;;;;;10517562;28;20246;-82
2021/09/04 22:43:20;;;;;;;8.47;7.77;;;18.00;99.90;;;;;;10517317;28;20650;-82
2021/09/04 22:48:22;;;;;;;8.33;7.53;;;17.90;99.90;;;;;;10533370;28;20726;-82
2021/09/04 22:53:24;;;;;;;7.63;7.03;;;17.90;99.90;;;;;;10530160;28;20212;-82
2021/09/04 22:58:28;;;;;;;8.30;7.60;;;17.90;99.90;;;;;;10529666;28;20199;-82
2021/09/04 23:03:30;;;;;;;8.47;7.67;;;17.80;99.90;;;;;;10511817;28;20235;-82
2021/09/04 23:08:32;;;;;;;7.73;7.07;;;17.80;99.90;;;;;;10512540;28;20229;-82
2021/09/04 23:13:36;;;;;;;7.57;6.90;;;17.70;99.90;;;;;;10528324;28;20231;-82
2021/09/04 23:18:38;;;;;;;7.50;6.80;;;17.70;99.90;;;;;;10542995;28;20196;-82
2021/09/04 23:23:40;;;;;;;7.10;6.50;;;17.70;99.90;;;;;;10555772;28;20230;-82
2021/09/04 23:28:43;;;;;;;8.60;6.80;;;17.70;99.90;;;;;;10527204;28;20196;-82
2021/09/04 23:33:46;;;;;;;8.00;7.40;;;17.60;99.90;;;;;;10509798;28;20224;-82
2021/09/04 23:38:48;;;;;;;7.63;6.47;;;17.60;99.90;;;;;;10525712;28;20199;-82
2021/09/04 23:43:53;;;;;;;8.00;7.30;;;17.50;99.90;;;;;;10525913;28;20228;-82
2021/09/04 23:48:58;;;;;;;7.63;7.00;;;17.50;99.90;;;;;;10543700;28;20196;-82
2021/09/04 23:54:00;;;;;;;7.90;7.30;;;17.50;99.90;;;;;;10525282;28;20310;-82
2021/09/04 23:59:03;;;;;;;7.67;6.97;;;17.50;99.90;;;;;;10525404;28;20192;-82
